sensor_id;sensor_type;location;lat;lon;timestamp;P1;durP1;ratioP1;P2;durP2;ratioP2
19907;SDS011;10116;53.112;7.356;2023-03-23T00:01:16;2.60;;;0.90;;
19907;SDS011;10116;53.112;7.356;2023-03-23T00:03:46;1.43;;;0.80;;
19907;SDS011;10116;53.112;7.356;2023-03-23T00:06:14;0.60;;;0.60;;
19907;SDS011;10116;53.112;7.356;2023-03-23T00:08:42;1.00;;;0.70;;
19907;SDS011;10116;53.112;7.356;2023-03-23T00:13:45;1.07;;;0.70;;
19907;SDS011;10116;53.112;7.356;2023-03-23T00:16:16;1.57;;;0.70;;
19907;SDS011;10116;53.112;7.356;2023-03-23T00:18:48;0.90;;;0.80;;
19907;SDS011;10116;53.112;7.356;2023-03-23T00:21:17;0.90;;;0.70;;
19907;SDS011;10116;53.112;7.356;2023-03-23T00:23:53;0.60;;;0.60;;
19907;SDS011;10116;53.112;7.356;2023-03-23T00:26:18;0.80;;;0.70;;
19907;SDS011;10116;53.112;7.356;2023-03-23T00:28:44;1.63;;;1.20;;
19907;SDS011;10116;53.112;7.356;2023-03-23T00:31:11;0.60;;;0.60;;
19907;SDS011;10116;53.112;7.356;2023-03-23T00:33:38;1.30;;;0.70;;
19907;SDS011;10116;53.112;7.356;2023-03-23T00:36:05;2.00;;;1.03;;
19907;SDS011;10116;53.112;7.356;2023-03-23T00:38:33;0.80;;;0.80;;
19907;SDS011;10116;53.112;7.356;2023-03-23T00:41:00;3.00;;;0.90;;
19907;SDS011;10116;53.112;7.356;2023-03-23T00:43:27;4.83;;;1.00;;
19907;SDS011;10116;53.112;7.356;2023-03-23T00:45:54;1.67;;;0.80;;
19907;SDS011;10116;53.112;7.356;2023-03-23T00:48:20;1.80;;;0.80;;
19907;SDS011;10116;53.112;7.356;2023-03-23T00:50:50;0.73;;;0.73;;
19907;SDS011;10116;53.112;7.356;2023-03-23T00:53:17;1.10;;;0.90;;
19907;SDS011;10116;53.112;7.356;2023-03-23T00:55:46;1.07;;;0.77;;
19907;SDS011;10116;53.112;7.356;2023-03-23T00:58:13;2.50;;;0.90;;
19907;SDS011;10116;53.112;7.356;2023-03-23T01:00:39;2.23;;;0.80;;
19907;SDS011;10116;53.112;7.356;2023-03-23T01:03:05;0.83;;;0.73;;
19907;SDS011;10116;53.112;7.356;2023-03-23T01:05:35;1.63;;;0.87;;
19907;SDS011;10116;53.112;7.356;2023-03-23T01:08:02;1.13;;;0.90;;
19907;SDS011;10116;53.112;7.356;2023-03-23T01:10:28;2.60;;;1.00;;
19907;SDS011;10116;53.112;7.356;2023-03-23T01:12:57;2.70;;;1.13;;
19907;SDS011;10116;53.112;7.356;2023-03-23T01:15:25;1.10;;;0.93;;
19907;SDS011;10116;53.112;7.356;2023-03-23T01:17:51;1.33;;;0.83;;
19907;SDS011;10116;53.112;7.356;2023-03-23T01:20:16;1.20;;;0.90;;
19907;SDS011;10116;53.112;7.356;2023-03-23T01:22:42;1.50;;;0.73;;
19907;SDS011;10116;53.112;7.356;2023-03-23T01:25:08;1.50;;;0.90;;
19907;SDS011;10116;53.112;7.356;2023-03-23T01:27:35;1.50;;;1.03;;
19907;SDS011;10116;53.112;7.356;2023-03-23T01:30:01;2.10;;;0.90;;
19907;SDS011;10116;53.112;7.356;2023-03-23T01:32:28;1.47;;;0.87;;
19907;SDS011;10116;53.112;7.356;2023-03-23T01:34:53;1.20;;;0.90;;
19907;SDS011;10116;53.112;7.356;2023-03-23T01:37:19;1.73;;;0.90;;
19907;SDS011;10116;53.112;7.356;2023-03-23T01:39:45;0.93;;;0.90;;
19907;SDS011;10116;53.112;7.356;2023-03-23T01:42:11;5.77;;;1.07;;
19907;SDS011;10116;53.112;7.356;2023-03-23T01:47:02;1.23;;;0.90;;
19907;SDS011;10116;53.112;7.356;2023-03-23T01:49:29;1.20;;;1.00;;
19907;SDS011;10116;53.112;7.356;2023-03-23T01:52:00;0.97;;;0.70;;
19907;SDS011;10116;53.112;7.356;2023-03-23T01:54:29;1.33;;;0.70;;
19907;SDS011;10116;53.112;7.356;2023-03-23T01:59:32;1.30;;;0.80;;
19907;SDS011;10116;53.112;7.356;2023-03-23T02:02:00;0.80;;;0.77;;
19907;SDS011;10116;53.112;7.356;2023-03-23T02:04:27;1.50;;;1.00;;
19907;SDS011;10116;53.112;7.356;2023-03-23T02:06:53;1.40;;;0.90;;
19907;SDS011;10116;53.112;7.356;2023-03-23T02:09:21;1.07;;;0.83;;
19907;SDS011;10116;53.112;7.356;2023-03-23T02:11:47;1.70;;;0.80;;
19907;SDS011;10116;53.112;7.356;2023-03-23T02:14:15;2.07;;;1.20;;
19907;SDS011;10116;53.112;7.356;2023-03-23T02:19:40;0.93;;;0.87;;
19907;SDS011;10116;53.112;7.356;2023-03-23T02:27:30;1.43;;;1.00;;
19907;SDS011;10116;53.112;7.356;2023-03-23T02:30:20;1.30;;;1.13;;
19907;SDS011;10116;53.112;7.356;2023-03-23T02:35:40;0.77;;;0.77;;
19907;SDS011;10116;53.112;7.356;2023-03-23T02:38:15;0.80;;;0.80;;
19907;SDS011;10116;53.112;7.356;2023-03-23T02:40:46;1.10;;;0.97;;
19907;SDS011;10116;53.112;7.356;2023-03-23T02:43:15;1.23;;;1.00;;
19907;SDS011;10116;53.112;7.356;2023-03-23T02:45:47;1.67;;;1.03;;
19907;SDS011;10116;53.112;7.356;2023-03-23T02:48:15;1.10;;;1.00;;
19907;SDS011;10116;53.112;7.356;2023-03-23T02:50:45;3.00;;;1.00;;
19907;SDS011;10116;53.112;7.356;2023-03-23T02:53:15;1.30;;;0.70;;
19907;SDS011;10116;53.112;7.356;2023-03-23T02:55:47;2.07;;;1.10;;
19907;SDS011;10116;53.112;7.356;2023-03-23T02:58:13;0.73;;;0.73;;
19907;SDS011;10116;53.112;7.356;2023-03-23T03:00:39;0.97;;;0.93;;
19907;SDS011;10116;53.112;7.356;2023-03-23T03:03:06;1.27;;;0.90;;
19907;SDS011;10116;53.112;7.356;2023-03-23T03:05:39;1.33;;;0.90;;
19907;SDS011;10116;53.112;7.356;2023-03-23T03:08:37;2.50;;;1.13;;
19907;SDS011;10116;53.112;7.356;2023-03-23T03:11:26;0.70;;;0.70;;
19907;SDS011;10116;53.112;7.356;2023-03-23T03:13:53;2.43;;;1.03;;
19907;SDS011;10116;53.112;7.356;2023-03-23T03:19:05;2.93;;;1.20;;
19907;SDS011;10116;53.112;7.356;2023-03-23T03:21:36;2.37;;;1.00;;
19907;SDS011;10116;53.112;7.356;2023-03-23T03:24:04;0.70;;;0.70;;
19907;SDS011;10116;53.112;7.356;2023-03-23T03:26:36;3.03;;;1.10;;
19907;SDS011;10116;53.112;7.356;2023-03-23T03:29:04;1.20;;;1.10;;
19907;SDS011;10116;53.112;7.356;2023-03-23T03:31:32;2.53;;;0.80;;
19907;SDS011;10116;53.112;7.356;2023-03-23T03:34:02;3.10;;;1.10;;
19907;SDS011;10116;53.112;7.356;2023-03-23T03:36:29;1.80;;;0.70;;
19907;SDS011;10116;53.112;7.356;2023-03-23T03:39:00;1.13;;;1.03;;
19907;SDS011;10116;53.112;7.356;2023-03-23T03:41:32;1.57;;;1.20;;
19907;SDS011;10116;53.112;7.356;2023-03-23T03:43:59;1.83;;;1.00;;
19907;SDS011;10116;53.112;7.356;2023-03-23T03:46:25;2.13;;;1.27;;
19907;SDS011;10116;53.112;7.356;2023-03-23T03:48:54;1.83;;;0.93;;
19907;SDS011;10116;53.112;7.356;2023-03-23T03:51:21;1.43;;;1.10;;
19907;SDS011;10116;53.112;7.356;2023-03-23T03:53:47;1.17;;;1.07;;
19907;SDS011;10116;53.112;7.356;2023-03-23T03:56:13;2.00;;;0.70;;
19907;SDS011;10116;53.112;7.356;2023-03-23T03:58:39;4.50;;;1.17;;
19907;SDS011;10116;53.112;7.356;2023-03-23T04:01:07;1.23;;;0.97;;
19907;SDS011;10116;53.112;7.356;2023-03-23T04:03:35;1.73;;;1.10;;
19907;SDS011;10116;53.112;7.356;2023-03-23T04:06:02;1.13;;;0.90;;
19907;SDS011;10116;53.112;7.356;2023-03-23T04:08:28;0.93;;;0.87;;
19907;SDS011;10116;53.112;7.356;2023-03-23T04:10:54;1.63;;;0.90;;
19907;SDS011;10116;53.112;7.356;2023-03-23T04:13:20;1.00;;;1.00;;
19907;SDS011;10116;53.112;7.356;2023-03-23T04:15:47;0.90;;;0.90;;
19907;SDS011;10116;53.112;7.356;2023-03-23T04:18:13;2.33;;;0.90;;
19907;SDS011;10116;53.112;7.356;2023-03-23T04:20:42;1.20;;;1.10;;
19907;SDS011;10116;53.112;7.356;2023-03-23T04:23:12;1.17;;;0.90;;
19907;SDS011;10116;53.112;7.356;2023-03-23T04:25:38;1.57;;;0.80;;
19907;SDS011;10116;53.112;7.356;2023-03-23T04:28:07;1.00;;;0.97;;
19907;SDS011;10116;53.112;7.356;2023-03-23T04:30:35;0.83;;;0.80;;
19907;SDS011;10116;53.112;7.356;2023-03-23T04:33:01;0.80;;;0.80;;
19907;SDS011;10116;53.112;7.356;2023-03-23T04:35:27;0.77;;;0.73;;
19907;SDS011;10116;53.112;7.356;2023-03-23T04:37:54;1.10;;;1.00;;
19907;SDS011;10116;53.112;7.356;2023-03-23T04:40:20;0.90;;;0.90;;
19907;SDS011;10116;53.112;7.356;2023-03-23T04:42:46;2.40;;;0.80;;
19907;SDS011;10116;53.112;7.356;2023-03-23T04:45:16;1.73;;;0.70;;
19907;SDS011;10116;53.112;7.356;2023-03-23T04:47:49;0.93;;;0.93;;
19907;SDS011;10116;53.112;7.356;2023-03-23T04:50:22;0.70;;;0.60;;
19907;SDS011;10116;53.112;7.356;2023-03-23T04:52:57;0.83;;;0.83;;
19907;SDS011;10116;53.112;7.356;2023-03-23T04:55:25;0.70;;;0.70;;
19907;SDS011;10116;53.112;7.356;2023-03-23T04:57:51;1.13;;;1.00;;
19907;SDS011;10116;53.112;7.356;2023-03-23T05:00:17;0.80;;;0.80;;
19907;SDS011;10116;53.112;7.356;2023-03-23T05:02:44;1.03;;;0.90;;
19907;SDS011;10116;53.112;7.356;2023-03-23T05:05:18;8.33;;;1.10;;
19907;SDS011;10116;53.112;7.356;2023-03-23T05:07:45;0.93;;;0.93;;
19907;SDS011;10116;53.112;7.356;2023-03-23T05:10:12;2.83;;;0.90;;
19907;SDS011;10116;53.112;7.356;2023-03-23T05:12:38;2.70;;;1.50;;
19907;SDS011;10116;53.112;7.356;2023-03-23T05:15:04;1.23;;;1.17;;
19907;SDS011;10116;53.112;7.356;2023-03-23T05:17:31;1.43;;;1.13;;
19907;SDS011;10116;53.112;7.356;2023-03-23T05:19:58;2.67;;;1.30;;
19907;SDS011;10116;53.112;7.356;2023-03-23T05:22:27;1.93;;;1.63;;
19907;SDS011;10116;53.112;7.356;2023-03-23T05:24:53;2.00;;;1.50;;
19907;SDS011;10116;53.112;7.356;2023-03-23T05:27:19;2.20;;;1.67;;
19907;SDS011;10116;53.112;7.356;2023-03-23T05:29:45;12.40;;;1.43;;
19907;SDS011;10116;53.112;7.356;2023-03-23T05:32:13;5.40;;;1.30;;
19907;SDS011;10116;53.112;7.356;2023-03-23T05:34:39;2.30;;;1.30;;
19907;SDS011;10116;53.112;7.356;2023-03-23T05:37:07;2.23;;;1.27;;
19907;SDS011;10116;53.112;7.356;2023-03-23T05:39:34;3.03;;;1.10;;
19907;SDS011;10116;53.112;7.356;2023-03-23T05:42:01;1.80;;;1.20;;
19907;SDS011;10116;53.112;7.356;2023-03-23T05:44:27;4.13;;;1.30;;
19907;SDS011;10116;53.112;7.356;2023-03-23T05:46:54;1.30;;;1.20;;
19907;SDS011;10116;53.112;7.356;2023-03-23T05:49:19;2.40;;;1.40;;
19907;SDS011;10116;53.112;7.356;2023-03-23T05:51:45;3.33;;;1.17;;
19907;SDS011;10116;53.112;7.356;2023-03-23T05:54:11;1.93;;;1.17;;
19907;SDS011;10116;53.112;7.356;2023-03-23T05:56:38;4.27;;;1.17;;
19907;SDS011;10116;53.112;7.356;2023-03-23T05:59:03;2.27;;;1.60;;
19907;SDS011;10116;53.112;7.356;2023-03-23T06:01:29;7.80;;;1.70;;
19907;SDS011;10116;53.112;7.356;2023-03-23T06:03:55;4.97;;;1.20;;
19907;SDS011;10116;53.112;7.356;2023-03-23T06:06:26;4.53;;;2.10;;
19907;SDS011;10116;53.112;7.356;2023-03-23T06:08:54;3.20;;;1.10;;
19907;SDS011;10116;53.112;7.356;2023-03-23T06:11:20;4.20;;;1.53;;
19907;SDS011;10116;53.112;7.356;2023-03-23T06:13:46;2.77;;;1.33;;
19907;SDS011;10116;53.112;7.356;2023-03-23T06:16:12;1.10;;;1.10;;
19907;SDS011;10116;53.112;7.356;2023-03-23T06:18:39;2.87;;;1.20;;
19907;SDS011;10116;53.112;7.356;2023-03-23T06:21:06;4.93;;;1.30;;
19907;SDS011;10116;53.112;7.356;2023-03-23T06:23:33;3.03;;;1.30;;
19907;SDS011;10116;53.112;7.356;2023-03-23T06:26:00;3.07;;;1.50;;
19907;SDS011;10116;53.112;7.356;2023-03-23T06:28:30;11.60;;;1.97;;
19907;SDS011;10116;53.112;7.356;2023-03-23T06:30:58;3.40;;;1.30;;
19907;SDS011;10116;53.112;7.356;2023-03-23T06:33:31;5.00;;;1.50;;
19907;SDS011;10116;53.112;7.356;2023-03-23T06:35:57;4.10;;;1.60;;
19907;SDS011;10116;53.112;7.356;2023-03-23T06:38:23;7.00;;;1.57;;
19907;SDS011;10116;53.112;7.356;2023-03-23T06:40:51;2.73;;;1.40;;
19907;SDS011;10116;53.112;7.356;2023-03-23T06:43:18;4.17;;;1.60;;
19907;SDS011;10116;53.112;7.356;2023-03-23T06:45:43;3.10;;;1.70;;
19907;SDS011;10116;53.112;7.356;2023-03-23T06:48:09;4.50;;;1.73;;
19907;SDS011;10116;53.112;7.356;2023-03-23T06:50:35;4.03;;;1.80;;
19907;SDS011;10116;53.112;7.356;2023-03-23T06:53:00;8.63;;;1.57;;
19907;SDS011;10116;53.112;7.356;2023-03-23T06:55:26;3.13;;;1.80;;
19907;SDS011;10116;53.112;7.356;2023-03-23T06:57:51;3.90;;;1.57;;
19907;SDS011;10116;53.112;7.356;2023-03-23T07:00:17;2.77;;;2.03;;
19907;SDS011;10116;53.112;7.356;2023-03-23T07:02:43;6.43;;;2.10;;
19907;SDS011;10116;53.112;7.356;2023-03-23T07:05:09;7.07;;;1.80;;
19907;SDS011;10116;53.112;7.356;2023-03-23T07:07:36;7.97;;;1.63;;
19907;SDS011;10116;53.112;7.356;2023-03-23T07:10:03;4.77;;;1.77;;
19907;SDS011;10116;53.112;7.356;2023-03-23T07:12:30;4.40;;;1.90;;
19907;SDS011;10116;53.112;7.356;2023-03-23T07:14:56;4.80;;;1.93;;
19907;SDS011;10116;53.112;7.356;2023-03-23T07:17:22;4.40;;;2.00;;
19907;SDS011;10116;53.112;7.356;2023-03-23T07:19:47;5.10;;;2.23;;
19907;SDS011;10116;53.112;7.356;2023-03-23T07:22:13;8.07;;;1.97;;
19907;SDS011;10116;53.112;7.356;2023-03-23T07:24:39;1.80;;;1.60;;
19907;SDS011;10116;53.112;7.356;2023-03-23T07:27:04;4.47;;;1.83;;
19907;SDS011;10116;53.112;7.356;2023-03-23T07:29:30;5.07;;;2.17;;
19907;SDS011;10116;53.112;7.356;2023-03-23T07:31:59;3.77;;;1.80;;
19907;SDS011;10116;53.112;7.356;2023-03-23T07:34:26;4.57;;;2.00;;
19907;SDS011;10116;53.112;7.356;2023-03-23T07:36:52;2.73;;;1.80;;
19907;SDS011;10116;53.112;7.356;2023-03-23T07:39:18;4.77;;;2.10;;
19907;SDS011;10116;53.112;7.356;2023-03-23T07:41:44;4.30;;;2.00;;
19907;SDS011;10116;53.112;7.356;2023-03-23T07:44:09;5.03;;;2.07;;
19907;SDS011;10116;53.112;7.356;2023-03-23T07:46:35;4.57;;;2.00;;
19907;SDS011;10116;53.112;7.356;2023-03-23T07:49:01;4.83;;;2.23;;
19907;SDS011;10116;53.112;7.356;2023-03-23T07:51:30;2.70;;;1.80;;
19907;SDS011;10116;53.112;7.356;2023-03-23T07:53:56;2.30;;;1.93;;
19907;SDS011;10116;53.112;7.356;2023-03-23T07:56:22;4.23;;;2.00;;
19907;SDS011;10116;53.112;7.356;2023-03-23T07:58:48;3.60;;;2.20;;
19907;SDS011;10116;53.112;7.356;2023-03-23T08:01:14;2.70;;;1.70;;
19907;SDS011;10116;53.112;7.356;2023-03-23T08:03:41;3.50;;;2.03;;
19907;SDS011;10116;53.112;7.356;2023-03-23T08:06:07;5.00;;;2.23;;
19907;SDS011;10116;53.112;7.356;2023-03-23T08:08:34;4.80;;;2.33;;
19907;SDS011;10116;53.112;7.356;2023-03-23T08:11:00;3.23;;;1.90;;
19907;SDS011;10116;53.112;7.356;2023-03-23T08:13:26;10.13;;;2.50;;
19907;SDS011;10116;53.112;7.356;2023-03-23T08:15:52;5.53;;;2.40;;
19907;SDS011;10116;53.112;7.356;2023-03-23T08:18:18;5.90;;;2.30;;
19907;SDS011;10116;53.112;7.356;2023-03-23T08:20:45;6.40;;;2.70;;
19907;SDS011;10116;53.112;7.356;2023-03-23T08:23:11;5.17;;;2.20;;
19907;SDS011;10116;53.112;7.356;2023-03-23T08:25:36;7.33;;;2.90;;
19907;SDS011;10116;53.112;7.356;2023-03-23T08:28:02;5.93;;;2.70;;
19907;SDS011;10116;53.112;7.356;2023-03-23T08:30:29;7.37;;;2.67;;
19907;SDS011;10116;53.112;7.356;2023-03-23T08:32:57;6.13;;;2.70;;
19907;SDS011;10116;53.112;7.356;2023-03-23T08:35:23;4.77;;;2.57;;
19907;SDS011;10116;53.112;7.356;2023-03-23T08:37:49;7.63;;;2.80;;
19907;SDS011;10116;53.112;7.356;2023-03-23T08:40:20;18.97;;;3.07;;
19907;SDS011;10116;53.112;7.356;2023-03-23T08:42:47;10.50;;;3.00;;
19907;SDS011;10116;53.112;7.356;2023-03-23T08:45:15;11.10;;;3.33;;
19907;SDS011;10116;53.112;7.356;2023-03-23T08:47:43;8.43;;;3.30;;
19907;SDS011;10116;53.112;7.356;2023-03-23T08:50:11;9.30;;;3.10;;
19907;SDS011;10116;53.112;7.356;2023-03-23T08:52:38;9.00;;;3.13;;
19907;SDS011;10116;53.112;7.356;2023-03-23T08:55:04;5.50;;;2.67;;
19907;SDS011;10116;53.112;7.356;2023-03-23T08:57:33;10.43;;;3.40;;
19907;SDS011;10116;53.112;7.356;2023-03-23T09:00:00;8.80;;;3.00;;
19907;SDS011;10116;53.112;7.356;2023-03-23T09:02:39;6.50;;;3.00;;
19907;SDS011;10116;53.112;7.356;2023-03-23T09:05:07;12.03;;;2.90;;
19907;SDS011;10116;53.112;7.356;2023-03-23T09:07:34;6.23;;;2.73;;
19907;SDS011;10116;53.112;7.356;2023-03-23T09:10:00;7.17;;;2.90;;
19907;SDS011;10116;53.112;7.356;2023-03-23T09:12:27;7.27;;;2.93;;
19907;SDS011;10116;53.112;7.356;2023-03-23T09:14:52;5.20;;;2.77;;
19907;SDS011;10116;53.112;7.356;2023-03-23T09:17:18;9.33;;;3.47;;
19907;SDS011;10116;53.112;7.356;2023-03-23T09:19:44;6.93;;;3.00;;
19907;SDS011;10116;53.112;7.356;2023-03-23T09:22:09;5.90;;;2.67;;
19907;SDS011;10116;53.112;7.356;2023-03-23T09:24:35;7.17;;;2.23;;
19907;SDS011;10116;53.112;7.356;2023-03-23T09:27:02;9.87;;;2.70;;
19907;SDS011;10116;53.112;7.356;2023-03-23T09:29:28;8.13;;;2.90;;
19907;SDS011;10116;53.112;7.356;2023-03-23T09:31:54;5.27;;;2.57;;
19907;SDS011;10116;53.112;7.356;2023-03-23T09:34:21;10.47;;;3.00;;
19907;SDS011;10116;53.112;7.356;2023-03-23T09:36:47;5.97;;;2.83;;
19907;SDS011;10116;53.112;7.356;2023-03-23T09:39:13;6.30;;;2.97;;
19907;SDS011;10116;53.112;7.356;2023-03-23T09:41:46;9.13;;;3.30;;
19907;SDS011;10116;53.112;7.356;2023-03-23T09:44:39;5.00;;;2.80;;
19907;SDS011;10116;53.112;7.356;2023-03-23T09:52:22;6.03;;;3.40;;
19907;SDS011;10116;53.112;7.356;2023-03-23T09:55:11;9.40;;;3.63;;
19907;SDS011;10116;53.112;7.356;2023-03-23T10:00:14;9.00;;;3.03;;
19907;SDS011;10116;53.112;7.356;2023-03-23T10:08:08;6.93;;;2.50;;
19907;SDS011;10116;53.112;7.356;2023-03-23T10:13:18;7.97;;;3.30;;
19907;SDS011;10116;53.112;7.356;2023-03-23T10:15:55;5.03;;;2.77;;
19907;SDS011;10116;53.112;7.356;2023-03-23T10:18:41;7.93;;;3.20;;
19907;SDS011;10116;53.112;7.356;2023-03-23T10:21:16;7.47;;;3.53;;
19907;SDS011;10116;53.112;7.356;2023-03-23T10:26:32;5.67;;;2.40;;
19907;SDS011;10116;53.112;7.356;2023-03-23T10:32:04;7.30;;;2.47;;
19907;SDS011;10116;53.112;7.356;2023-03-23T10:34:47;6.00;;;3.47;;
19907;SDS011;10116;53.112;7.356;2023-03-23T10:37:16;6.00;;;3.47;;
19907;SDS011;10116;53.112;7.356;2023-03-23T10:39:58;7.47;;;2.53;;
19907;SDS011;10116;53.112;7.356;2023-03-23T10:44:53;7.60;;;3.10;;
19907;SDS011;10116;53.112;7.356;2023-03-23T10:47:19;9.87;;;3.80;;
19907;SDS011;10116;53.112;7.356;2023-03-23T10:49:49;10.07;;;3.27;;
19907;SDS011;10116;53.112;7.356;2023-03-23T10:55:02;6.40;;;3.30;;
19907;SDS011;10116;53.112;7.356;2023-03-23T10:57:32;5.00;;;2.60;;
19907;SDS011;10116;53.112;7.356;2023-03-23T11:00:00;7.80;;;3.30;;
19907;SDS011;10116;53.112;7.356;2023-03-23T11:02:32;5.20;;;3.00;;
19907;SDS011;10116;53.112;7.356;2023-03-23T11:05:09;5.20;;;2.90;;
19907;SDS011;10116;53.112;7.356;2023-03-23T11:07:56;6.27;;;2.97;;
19907;SDS011;10116;53.112;7.356;2023-03-23T11:10:26;5.47;;;2.70;;
19907;SDS011;10116;53.112;7.356;2023-03-23T11:13:03;7.87;;;2.60;;
19907;SDS011;10116;53.112;7.356;2023-03-23T11:15:39;5.47;;;2.60;;
19907;SDS011;10116;53.112;7.356;2023-03-23T11:18:09;8.77;;;3.00;;
19907;SDS011;10116;53.112;7.356;2023-03-23T11:20:39;6.43;;;2.87;;
19907;SDS011;10116;53.112;7.356;2023-03-23T11:23:49;7.07;;;2.80;;
19907;SDS011;10116;53.112;7.356;2023-03-23T11:28:43;8.20;;;3.00;;
19907;SDS011;10116;53.112;7.356;2023-03-23T11:31:29;5.13;;;2.90;;
19907;SDS011;10116;53.112;7.356;2023-03-23T11:36:52;3.60;;;2.03;;
19907;SDS011;10116;53.112;7.356;2023-03-23T11:41:53;5.00;;;2.53;;
19907;SDS011;10116;53.112;7.356;2023-03-23T11:44:21;6.70;;;2.90;;
19907;SDS011;10116;53.112;7.356;2023-03-23T11:47:00;7.53;;;2.33;;
19907;SDS011;10116;53.112;7.356;2023-03-23T11:53:23;4.53;;;2.07;;
19907;SDS011;10116;53.112;7.356;2023-03-23T11:58:55;10.37;;;2.07;;
19907;SDS011;10116;53.112;7.356;2023-03-23T12:12:28;5.30;;;2.03;;
19907;SDS011;10116;53.112;7.356;2023-03-23T12:15:13;2.83;;;2.17;;
19907;SDS011;10116;53.112;7.356;2023-03-23T12:17:48;3.93;;;2.07;;
19907;SDS011;10116;53.112;7.356;2023-03-23T12:23:50;6.43;;;2.47;;
19907;SDS011;10116;53.112;7.356;2023-03-23T12:26:19;2.73;;;1.63;;
19907;SDS011;10116;53.112;7.356;2023-03-23T12:29:08;3.37;;;1.90;;
19907;SDS011;10116;53.112;7.356;2023-03-23T12:40:30;2.40;;;1.57;;
19907;SDS011;10116;53.112;7.356;2023-03-23T12:43:44;7.10;;;1.70;;
19907;SDS011;10116;53.112;7.356;2023-03-23T12:56:59;3.97;;;1.97;;
19907;SDS011;10116;53.112;7.356;2023-03-23T12:59:40;3.63;;;1.60;;
19907;SDS011;10116;53.112;7.356;2023-03-23T13:11:15;3.50;;;1.90;;
19907;SDS011;10116;53.112;7.356;2023-03-23T13:13:53;3.97;;;2.07;;
19907;SDS011;10116;53.112;7.356;2023-03-23T13:16:39;3.83;;;1.77;;
19907;SDS011;10116;53.112;7.356;2023-03-23T13:24:15;2.47;;;1.60;;
19907;SDS011;10116;53.112;7.356;2023-03-23T13:26:44;3.40;;;1.83;;
19907;SDS011;10116;53.112;7.356;2023-03-23T13:29:13;3.07;;;1.43;;
19907;SDS011;10116;53.112;7.356;2023-03-23T13:31:43;2.77;;;1.60;;
19907;SDS011;10116;53.112;7.356;2023-03-23T13:34:15;3.47;;;1.67;;
19907;SDS011;10116;53.112;7.356;2023-03-23T13:37:05;6.10;;;1.80;;
19907;SDS011;10116;53.112;7.356;2023-03-23T13:39:37;4.23;;;1.70;;
19907;SDS011;10116;53.112;7.356;2023-03-23T13:49:53;3.67;;;1.60;;
19907;SDS011;10116;53.112;7.356;2023-03-23T14:00:31;4.30;;;2.30;;
19907;SDS011;10116;53.112;7.356;2023-03-23T14:03:01;3.83;;;1.87;;
19907;SDS011;10116;53.112;7.356;2023-03-23T14:13:02;9.60;;;1.97;;
19907;SDS011;10116;53.112;7.356;2023-03-23T14:15:31;5.23;;;2.20;;
19907;SDS011;10116;53.112;7.356;2023-03-23T14:18:06;2.37;;;1.73;;
19907;SDS011;10116;53.112;7.356;2023-03-23T14:20:37;4.40;;;1.90;;
19907;SDS011;10116;53.112;7.356;2023-03-23T14:23:04;3.40;;;2.07;;
19907;SDS011;10116;53.112;7.356;2023-03-23T14:25:30;3.10;;;1.73;;
19907;SDS011;10116;53.112;7.356;2023-03-23T14:27:59;4.67;;;1.97;;
19907;SDS011;10116;53.112;7.356;2023-03-23T14:30:25;3.50;;;1.87;;
19907;SDS011;10116;53.112;7.356;2023-03-23T14:33:02;3.60;;;2.00;;
19907;SDS011;10116;53.112;7.356;2023-03-23T14:35:35;3.67;;;1.93;;
19907;SDS011;10116;53.112;7.356;2023-03-23T14:38:03;3.63;;;1.80;;
19907;SDS011;10116;53.112;7.356;2023-03-23T14:40:30;1.60;;;1.50;;
19907;SDS011;10116;53.112;7.356;2023-03-23T14:42:56;3.00;;;1.60;;
19907;SDS011;10116;53.112;7.356;2023-03-23T14:45:24;2.20;;;1.60;;
19907;SDS011;10116;53.112;7.356;2023-03-23T14:47:52;4.77;;;1.90;;
19907;SDS011;10116;53.112;7.356;2023-03-23T14:50:30;7.03;;;2.80;;
19907;SDS011;10116;53.112;7.356;2023-03-23T14:53:12;5.17;;;2.03;;
19907;SDS011;10116;53.112;7.356;2023-03-23T14:55:58;7.70;;;1.87;;
19907;SDS011;10116;53.112;7.356;2023-03-23T14:58:27;6.47;;;1.90;;
19907;SDS011;10116;53.112;7.356;2023-03-23T15:00:58;8.70;;;2.17;;
19907;SDS011;10116;53.112;7.356;2023-03-23T15:03:45;2.90;;;1.67;;
19907;SDS011;10116;53.112;7.356;2023-03-23T15:06:19;9.43;;;2.40;;
19907;SDS011;10116;53.112;7.356;2023-03-23T15:08:47;3.80;;;1.90;;
19907;SDS011;10116;53.112;7.356;2023-03-23T15:13:55;5.23;;;1.80;;
19907;SDS011;10116;53.112;7.356;2023-03-23T15:16:25;14.23;;;2.50;;
19907;SDS011;10116;53.112;7.356;2023-03-23T15:18:56;4.67;;;2.00;;
19907;SDS011;10116;53.112;7.356;2023-03-23T15:21:33;8.30;;;2.33;;
19907;SDS011;10116;53.112;7.356;2023-03-23T15:24:01;7.23;;;2.40;;
19907;SDS011;10116;53.112;7.356;2023-03-23T15:26:43;3.63;;;1.67;;
19907;SDS011;10116;53.112;7.356;2023-03-23T15:29:16;5.90;;;2.43;;
19907;SDS011;10116;53.112;7.356;2023-03-23T15:31:47;3.53;;;2.00;;
19907;SDS011;10116;53.112;7.356;2023-03-23T15:34:20;6.67;;;2.20;;
19907;SDS011;10116;53.112;7.356;2023-03-23T15:36:50;8.17;;;2.40;;
19907;SDS011;10116;53.112;7.356;2023-03-23T15:39:19;4.80;;;2.13;;
19907;SDS011;10116;53.112;7.356;2023-03-23T15:41:46;7.33;;;2.57;;
19907;SDS011;10116;53.112;7.356;2023-03-23T15:44:27;5.90;;;2.60;;
19907;SDS011;10116;53.112;7.356;2023-03-23T15:49:37;3.67;;;1.87;;
19907;SDS011;10116;53.112;7.356;2023-03-23T15:52:03;6.50;;;2.17;;
19907;SDS011;10116;53.112;7.356;2023-03-23T15:54:29;5.30;;;1.97;;
19907;SDS011;10116;53.112;7.356;2023-03-23T15:56:57;3.77;;;2.10;;
19907;SDS011;10116;53.112;7.356;2023-03-23T15:59:22;3.50;;;1.93;;
19907;SDS011;10116;53.112;7.356;2023-03-23T16:01:48;4.60;;;1.63;;
19907;SDS011;10116;53.112;7.356;2023-03-23T16:04:14;4.23;;;2.13;;
19907;SDS011;10116;53.112;7.356;2023-03-23T16:06:42;5.23;;;1.80;;
19907;SDS011;10116;53.112;7.356;2023-03-23T16:09:16;3.60;;;2.07;;
19907;SDS011;10116;53.112;7.356;2023-03-23T16:11:43;4.23;;;1.83;;
19907;SDS011;10116;53.112;7.356;2023-03-23T16:14:09;6.50;;;2.00;;
19907;SDS011;10116;53.112;7.356;2023-03-23T16:19:07;4.83;;;2.00;;
19907;SDS011;10116;53.112;7.356;2023-03-23T16:21:38;4.37;;;1.97;;
19907;SDS011;10116;53.112;7.356;2023-03-23T16:24:04;3.50;;;1.80;;
19907;SDS011;10116;53.112;7.356;2023-03-23T16:26:30;4.13;;;2.00;;
19907;SDS011;10116;53.112;7.356;2023-03-23T16:28:56;5.30;;;2.27;;
19907;SDS011;10116;53.112;7.356;2023-03-23T16:31:21;3.20;;;1.90;;
19907;SDS011;10116;53.112;7.356;2023-03-23T16:33:47;4.13;;;1.73;;
19907;SDS011;10116;53.112;7.356;2023-03-23T16:36:13;5.13;;;1.93;;
19907;SDS011;10116;53.112;7.356;2023-03-23T16:38:39;6.87;;;2.63;;
19907;SDS011;10116;53.112;7.356;2023-03-23T16:41:06;4.40;;;2.10;;
19907;SDS011;10116;53.112;7.356;2023-03-23T16:43:32;3.97;;;2.30;;
19907;SDS011;10116;53.112;7.356;2023-03-23T16:45:58;2.30;;;1.80;;
19907;SDS011;10116;53.112;7.356;2023-03-23T16:48:23;4.80;;;2.00;;
19907;SDS011;10116;53.112;7.356;2023-03-23T16:50:51;2.93;;;1.50;;
19907;SDS011;10116;53.112;7.356;2023-03-23T16:53:18;4.47;;;2.10;;
19907;SDS011;10116;53.112;7.356;2023-03-23T16:55:44;3.77;;;1.93;;
19907;SDS011;10116;53.112;7.356;2023-03-23T16:58:12;4.70;;;2.30;;
19907;SDS011;10116;53.112;7.356;2023-03-23T17:00:38;3.90;;;1.93;;
19907;SDS011;10116;53.112;7.356;2023-03-23T17:03:05;3.57;;;1.70;;
19907;SDS011;10116;53.112;7.356;2023-03-23T17:05:30;4.47;;;1.90;;
19907;SDS011;10116;53.112;7.356;2023-03-23T17:07:56;3.30;;;1.97;;
19907;SDS011;10116;53.112;7.356;2023-03-23T17:10:23;6.67;;;2.10;;
19907;SDS011;10116;53.112;7.356;2023-03-23T17:12:51;2.17;;;1.97;;
19907;SDS011;10116;53.112;7.356;2023-03-23T17:15:17;6.37;;;2.27;;
19907;SDS011;10116;53.112;7.356;2023-03-23T17:17:42;4.27;;;2.03;;
19907;SDS011;10116;53.112;7.356;2023-03-23T17:20:08;5.10;;;2.03;;
19907;SDS011;10116;53.112;7.356;2023-03-23T17:22:35;2.70;;;1.63;;